M I D A S
Marine Information and Data Acquisition System
Tripno 1156 of the Zeeleeuw from 2006-08-30 06:22:36 to 2006-08-30 15:14:32
Back to CruiseResearch ActivitiesStationsMapUnderway DataData graphs

EquipmentUnitsComments
TimeDGPSUTC
LatitudeDGPSDM.mWGS84
LongitudeDGPSDM.mWGS84
SpeedMeteo Stationm/sRelative wind speed
DirectionMeteo StationdegRelative wind direction
TemperatureMeteo Stationdeg CelciusAir temperature
PressureMeteo StationPaAtmospheric pressure
HumidityMeteo Station%Relative humidity
Missing or incorrect values are displayed as -999
Metereological data collected by the RV Zeeleeuw from 2006-08-30 06:22:43 to 2006-08-30 15:25:18
                                                                                    Next 1000 lines
Time Latitude Longitude Speed Direction Temperature Pressure Humidity
2006-08-30 06:22:53 51°13.597 2°56.09 6.8 27 15.6 101560 69
2006-08-30 06:22:58 51°13.598 2°56.087 7.1 52 15.6 101560 69
2006-08-30 06:23:03 51°13.599 2°56.084 8.5 21 15.6 101570 69
2006-08-30 06:23:08 51°13.599 2°56.081 6.3 56 15.6 101570 69
2006-08-30 06:23:13 51°13.601 2°56.076 6.5 25 15.6 101570 69
2006-08-30 06:23:19 51°13.602 2°56.072 7.8 56 15.6 101570 69
2006-08-30 06:23:24 51°13.603 2°56.067 6.7 26 15.6 101570 69
2006-08-30 06:23:29 51°13.604 2°56.062 9.6 57 15.6 101570 69
2006-08-30 06:23:34 51°13.606 2°56.057 8 27 15.6 101560 69
2006-08-30 06:23:39 51°13.607 2°56.052 7.4 50 15.6 101560 69
2006-08-30 06:23:44 51°13.609 2°56.046 7.7 25 15.6 101560 69
2006-08-30 06:23:49 51°13.61 2°56.04 9.9 53 15.6 101560 69
2006-08-30 06:23:54 51°13.612 2°56.034 8.5 26 15.6 101570 69
2006-08-30 06:23:59 51°13.613 2°56.028 8 58 15.6 101570 69
2006-08-30 06:24:04 51°13.615 2°56.021 7.2 24 15.6 101570 69
2006-08-30 06:24:09 51°13.617 2°56.014 8.1 55 15.6 101570 69
2006-08-30 06:24:14 51°13.618 2°56.008 8.3 27 15.5 101570 69
2006-08-30 06:24:19 51°13.62 2°56.001 8.5 51 15.5 101570 69
2006-08-30 06:24:24 51°13.622 2°55.994 6.9 21 15.5 101570 69
2006-08-30 06:24:30 51°13.625 2°55.986 5.8 50 15.5 101570 69
2006-08-30 06:24:34 51°13.626 2°55.98 5.8 28 15.5 101570 70
2006-08-30 06:24:39 51°13.628 2°55.973 6.2 52 15.5 101570 70
2006-08-30 06:24:44 51°13.631 2°55.966 6.5 27 15.5 101570 69
2006-08-30 06:24:49 51°13.633 2°55.959 6.8 52 15.5 101570 69
2006-08-30 06:24:54 51°13.635 2°55.953 9.1 23 15.5 101570 69
2006-08-30 06:24:59 51°13.638 2°55.946 5.6 52 15.5 101570 69
2006-08-30 06:25:04 51°13.64 2°55.939 6.6 22 15.5 101570 70
2006-08-30 06:25:09 51°13.643 2°55.933 4.4 56 15.5 101570 70
2006-08-30 06:25:14 51°13.645 2°55.926 6.7 21 15.5 101570 69
2006-08-30 06:25:19 51°13.648 2°55.92 5.4 52 15.5 101570 69
2006-08-30 06:25:24 51°13.65 2°55.913 4.4 29 15.5 101570 69
2006-08-30 06:25:29 51°13.653 2°55.907 4.1 58 15.5 101570 69
2006-08-30 06:25:34 51°13.656 2°55.9 6.3 25 15.6 101570 70
2006-08-30 06:25:39 51°13.659 2°55.893 4.6 59 15.6 101570 70
2006-08-30 06:25:44 51°13.661 2°55.887 5 26 15.6 101560 70
2006-08-30 06:25:49 51°13.664 2°55.88 5.3 57 15.6 101560 70
2006-08-30 06:25:54 51°13.666 2°55.874 6.5 21 15.7 101570 71
2006-08-30 06:25:59 51°13.669 2°55.867 7.4 51 15.7 101570 71
2006-08-30 06:26:04 51°13.671 2°55.861 4.1 22 15.7 101570 70
2006-08-30 06:26:09 51°13.674 2°55.854 5.7 53 15.7 101570 70
2006-08-30 06:26:14 51°13.676 2°55.848 8 27 15.8 101570 70
2006-08-30 06:26:19 51°13.678 2°55.841 7 53 15.8 101570 70
2006-08-30 06:26:24 51°13.68 2°55.835 7.5 23 15.8 101570 69
2006-08-30 06:26:29 51°13.682 2°55.829 6.5 56 15.8 101570 69
2006-08-30 06:26:34 51°13.684 2°55.823 5.8 26 15.8 101580 68
2006-08-30 06:26:39 51°13.686 2°55.817 7.3 52 15.8 101580 68
2006-08-30 06:26:44 51°13.687 2°55.811 5.8 25 15.8 101580 68
2006-08-30 06:26:50 51°13.689 2°55.804 6.6 56 15.8 101580 68
2006-08-30 06:26:54 51°13.69 2°55.8 8.1 29 15.7 101570 67
2006-08-30 06:26:59 51°13.691 2°55.794 9 52 15.7 101570 67
2006-08-30 06:27:04 51°13.693 2°55.788 6.7 22 15.7 101570 67
2006-08-30 06:27:09 51°13.694 2°55.783 6.8 58 15.7 101570 67
2006-08-30 06:27:14 51°13.695 2°55.777 7.8 23 15.7 101580 67
2006-08-30 06:27:19 51°13.696 2°55.772 7.1 53 15.7 101580 67
2006-08-30 06:27:24 51°13.698 2°55.766 5.8 28 15.7 101570 68
2006-08-30 06:27:29 51°13.699 2°55.761 6.9 52 15.7 101570 68
2006-08-30 06:27:34 51°13.7 2°55.755 6.5 27 15.7 101580 68
2006-08-30 06:27:39 51°13.701 2°55.75 5.2 52 15.7 101580 68
2006-08-30 06:27:44 51°13.702 2°55.745 5.2 27 15.7 101580 68
2006-08-30 06:27:49 51°13.702 2°55.741 6 59 15.7 101580 68
2006-08-30 06:27:54 51°13.703 2°55.737 6 26 15.7 101580 68
2006-08-30 06:27:59 51°13.703 2°55.734 6.2 53 15.7 101580 68
2006-08-30 06:28:04 51°13.703 2°55.733 5.2 264 15.7 101570 68
2006-08-30 06:28:09 51°13.704 2°55.731 4 308 15.7 101570 68
2006-08-30 06:28:13 51°13.704 2°55.731 4.3 265 15.7 101570 67
2006-08-30 06:28:18 51°13.704 2°55.73 6.5 56 15.7 101570 67
2006-08-30 06:28:23 51°13.704 2°55.731 3.8 262 15.7 101570 68
2006-08-30 06:28:28 51°13.705 2°55.732 4.4 311 15.7 101570 68
2006-08-30 06:28:33 51°13.705 2°55.733 3.2 263 15.7 101570 68
2006-08-30 06:28:37 51°13.706 2°55.734 4.2 303 15.7 101570 68
2006-08-30 06:28:43 51°13.706 2°55.736 4.6 267 15.7 101570 68
2006-08-30 06:28:48 51°13.707 2°55.738 6.9 304 15.7 101570 68
2006-08-30 06:28:53 51°13.708 2°55.74 3.9 250 15.7 101570 68
2006-08-30 06:28:58 51°13.709 2°55.743 7.4 301 15.7 101570 68
2006-08-30 06:29:03 51°13.71 2°55.745 6.6 252 15.7 101570 68
2006-08-30 06:29:07 51°13.711 2°55.746 5.5 308 15.7 101570 68
2006-08-30 06:29:13 51°13.711 2°55.746 5.1 258 15.7 101580 68
2006-08-30 06:29:18 51°13.711 2°55.746 3.3 301 15.7 101580 68
2006-08-30 06:29:23 51°13.71 2°55.746 5.3 249 15.7 101570 68
2006-08-30 06:29:28 51°13.709 2°55.745 5.1 310 15.7 101570 68
2006-08-30 06:29:33 51°13.708 2°55.744 6.6 247 15.7 101570 68
2006-08-30 06:29:38 51°13.707 2°55.743 4.6 302 15.7 101570 68
2006-08-30 06:29:43 51°13.705 2°55.743 5.2 20 15.7 101560 68
2006-08-30 06:29:48 51°13.704 2°55.742 6.1 306 15.7 101560 68
2006-08-30 06:29:54 51°13.702 2°55.74 5.3 243 15.7 101570 68
2006-08-30 06:29:59 51°13.701 2°55.74 6.3 309 15.7 101570 68
2006-08-30 06:30:04 51°13.701 2°55.74 6.8 243 15.7 101570 68
2006-08-30 06:30:09 51°13.701 2°55.74 5.9 307 15.7 101570 68
2006-08-30 06:30:14 51°13.701 2°55.74 4.8 252 15.7 101570 68
2006-08-30 06:30:19 51°13.702 2°55.741 6.8 309 15.7 101570 68
2006-08-30 06:30:24 51°13.704 2°55.741 6.1 22 15.7 101570 68
2006-08-30 06:30:29 51°13.705 2°55.741 4.3 303 15.7 101570 68
2006-08-30 06:30:33 51°13.707 2°55.74 4.1 319 15.7 101570 68
2006-08-30 06:30:38 51°13.709 2°55.74 7.3 323 15.7 101570 68
2006-08-30 06:30:43 51°13.712 2°55.739 8.2 322 15.7 101560 68
2006-08-30 06:30:48 51°13.715 2°55.737 6.9 301 15.7 101560 68
2006-08-30 06:30:53 51°13.718 2°55.735 10.4 20 15.7 101570 68
2006-08-30 06:30:58 51°13.721 2°55.733 7 307 15.7 101570 68
2006-08-30 06:31:03 51°13.725 2°55.73 7 320 15.7 101560 68
2006-08-30 06:31:09 51°13.73 2°55.726 5.9 325 15.7 101560 68
2006-08-30 06:31:13 51°13.733 2°55.722 6.8 331 15.7 101560 68
2006-08-30 06:31:18 51°13.737 2°55.718 7.9 327 15.7 101560 68
2006-08-30 06:31:23 51°13.742 2°55.713 8.2 332 15.7 101560 68
2006-08-30 06:31:28 51°13.746 2°55.708 8.7 331 15.7 101560 68
2006-08-30 06:31:33 51°13.752 2°55.703 11.4 333 15.7 101560 68
2006-08-30 06:31:38 51°13.757 2°55.697 6.4 324 15.7 101560 68
2006-08-30 06:31:43 51°13.762 2°55.692 5.8 332 15.7 101560 68
2006-08-30 06:31:48 51°13.768 2°55.686 9.6 328 15.7 101560 68
2006-08-30 06:31:53 51°13.773 2°55.68 8.3 326 15.7 101560 68
2006-08-30 06:31:59 51°13.781 2°55.673 7.6 332 15.7 101560 68
2006-08-30 06:32:02 51°13.785 2°55.67 8.5 334 15.7 101560 68
2006-08-30 06:32:07 51°13.791 2°55.664 7.5 301 15.7 101560 68
2006-08-30 06:32:13 51°13.799 2°55.657 9.7 333 15.7 101550 67
2006-08-30 06:32:18 51°13.806 2°55.652 6.8 329 15.7 101550 67
2006-08-30 06:32:22 51°13.812 2°55.647 9 324 15.7 101560 67
2006-08-30 06:32:28 51°13.821 2°55.64 8.5 330 15.7 101560 67
2006-08-30 06:32:33 51°13.829 2°55.635 11.5 335 15.6 101560 67
2006-08-30 06:32:38 51°13.837 2°55.629 11.2 325 15.6 101560 67
2006-08-30 06:32:42 51°13.844 2°55.624 11.1 325 15.6 101550 67
2006-08-30 06:32:48 51°13.854 2°55.617 9.4 303 15.6 101550 67
2006-08-30 06:32:53 51°13.862 2°55.611 9.8 328 15.7 101550 67
2006-08-30 06:32:58 51°13.871 2°55.605 12.3 306 15.7 101550 67
2006-08-30 06:33:02 51°13.878 2°55.599 12.2 323 15.7 101560 68
2006-08-30 06:33:09 51°13.89 2°55.591 10.3 308 15.7 101560 68
2006-08-30 06:33:13 51°13.898 2°55.586 11.5 326 15.7 101540 68
2006-08-30 06:33:18 51°13.906 2°55.58 11.1 301 15.7 101540 68
2006-08-30 06:33:23 51°13.916 2°55.573 9.7 318 15.7 101540 68
2006-08-30 06:33:28 51°13.925 2°55.567 8.8 327 15.7 101540 68
2006-08-30 06:33:33 51°13.934 2°55.561 11.2 328 15.7 101550 68
2006-08-30 06:33:38 51°13.944 2°55.554 10.3 332 15.7 101550 68
2006-08-30 06:33:43 51°13.953 2°55.548 9.8 324 15.6 101550 68
2006-08-30 06:33:48 51°13.962 2°55.541 12.7 304 15.6 101550 68
2006-08-30 06:33:53 51°13.972 2°55.535 11.9 320 15.7 101540 68
2006-08-30 06:33:58 51°13.981 2°55.528 11.1 304 15.7 101540 68
2006-08-30 06:34:03 51°13.991 2°55.522 14.1 323 15.7 101560 69
2006-08-30 06:34:09 51°14.002 2°55.514 12.5 303 15.7 101560 69
2006-08-30 06:34:13 51°14.01 2°55.509 12.9 319 15.7 101550 69
2006-08-30 06:34:18 51°14.019 2°55.502 13.2 324 15.7 101550 69
2006-08-30 06:34:23 51°14.029 2°55.496 13.4 323 15.7 101540 69
2006-08-30 06:34:28 51°14.039 2°55.49 13.5 306 15.7 101540 69
2006-08-30 06:34:33 51°14.048 2°55.483 13.7 321 15.7 101530 70
2006-08-30 06:34:38 51°14.057 2°55.476 14.4 308 15.7 101530 70
2006-08-30 06:34:43 51°14.067 2°55.47 14.4 320 15.7 101540 70
2006-08-30 06:34:48 51°14.076 2°55.463 12.3 308 15.7 101540 70
2006-08-30 06:34:53 51°14.085 2°55.457 12 317 15.7 101530 70
2006-08-30 06:34:57 51°14.093 2°55.451 13.7 306 15.7 101530 70
2006-08-30 06:35:03 51°14.105 2°55.442 14.1 318 15.7 101550 71
2006-08-30 06:35:09 51°14.116 2°55.433 14 301 15.7 101550 71
2006-08-30 06:35:13 51°14.124 2°55.427 12.3 319 15.8 101540 71
2006-08-30 06:35:18 51°14.133 2°55.418 13.2 301 15.8 101540 71
2006-08-30 06:35:23 51°14.143 2°55.41 13.8 323 15.8 101540 71
2006-08-30 06:35:28 51°14.153 2°55.401 12.5 302 15.8 101540 71
2006-08-30 06:35:32 51°14.161 2°55.394 14 321 15.8 101540 71
2006-08-30 06:35:37 51°14.17 2°55.384 14.2 303 15.8 101540 71
2006-08-30 06:35:43 51°14.181 2°55.371 14.3 321 15.8 101550 71
2006-08-30 06:35:48 51°14.191 2°55.36 12.5 325 15.8 101550 71
2006-08-30 06:35:53 51°14.2 2°55.349 12.8 326 15.8 101540 71
2006-08-30 06:35:58 51°14.21 2°55.337 13.8 328 15.8 101540 71
2006-08-30 06:36:03 51°14.219 2°55.325 12.9 328 15.8 101530 70
2006-08-30 06:36:08 51°14.228 2°55.313 13.9 327 15.8 101530 70
2006-08-30 06:36:13 51°14.237 2°55.3 13.7 325 15.8 101540 71
2006-08-30 06:36:18 51°14.246 2°55.288 13.8 326 15.8 101540 71
2006-08-30 06:36:23 51°14.255 2°55.274 14.8 327 15.8 101560 72
2006-08-30 06:36:28 51°14.264 2°55.261 15.5 328 15.8 101560 72
2006-08-30 06:36:33 51°14.272 2°55.247 15 328 15.8 101550 72
2006-08-30 06:36:38 51°14.28 2°55.232 13.6 327 15.8 101550 72
2006-08-30 06:36:43 51°14.288 2°55.218 13 329 15.8 101540 72
2006-08-30 06:36:48 51°14.296 2°55.203 14.1 329 15.8 101540 72
2006-08-30 06:36:53 51°14.304 2°55.188 14.4 329 15.8 101550 70
2006-08-30 06:36:57 51°14.31 2°55.176 14.6 327 15.8 101550 70
2006-08-30 06:37:03 51°14.319 2°55.158 14.1 324 15.7 101530 69
2006-08-30 06:37:08 51°14.327 2°55.142 13.8 331 15.7 101530 69
2006-08-30 06:37:13 51°14.335 2°55.127 14.2 327 15.7 101550 70
2006-08-30 06:37:18 51°14.344 2°55.111 14 329 15.7 101550 70
2006-08-30 06:37:23 51°14.352 2°55.097 14.3 329 15.8 101550 70
2006-08-30 06:37:28 51°14.361 2°55.082 16.3 329 15.8 101550 70
2006-08-30 06:37:33 51°14.37 2°55.066 15.9 326 15.8 101550 71
2006-08-30 06:37:38 51°14.379 2°55.051 15.9 326 15.8 101550 71
2006-08-30 06:37:43 51°14.388 2°55.035 16.3 325 15.8 101540 71
2006-08-30 06:37:48 51°14.397 2°55.022 15.3 324 15.8 101540 71
2006-08-30 06:37:53 51°14.407 2°55.008 16.9 324 15.8 101550 70
2006-08-30 06:37:58 51°14.418 2°54.995 14.9 306 15.8 101550 70
2006-08-30 06:38:03 51°14.428 2°54.983 14.3 325 15.8 101550 71
2006-08-30 06:38:08 51°14.439 2°54.971 15.1 304 15.8 101550 71
2006-08-30 06:38:13 51°14.45 2°54.957 14.7 322 15.8 101510 71
2006-08-30 06:38:18 51°14.46 2°54.945 14.1 308 15.8 101510 71
2006-08-30 06:38:23 51°14.471 2°54.932 16.5 323 15.8 101550 70
2006-08-30 06:38:28 51°14.482 2°54.921 15.8 323 15.8 101550 70
2006-08-30 06:38:33 51°14.493 2°54.908 16.2 326 15.8 101540 70
2006-08-30 06:38:38 51°14.505 2°54.896 15.1 305 15.8 101540 70
2006-08-30 06:38:41 51°14.511 2°54.889 15.1 327 15.8 101530 71
2006-08-30 06:38:47 51°14.526 2°54.874 15.8 303 15.8 101530 71
2006-08-30 06:38:53 51°14.539 2°54.861 15.4 323 15.8 101530 71
2006-08-30 06:38:58 51°14.552 2°54.849 14.3 303 15.8 101530 71
2006-08-30 06:39:03 51°14.564 2°54.84 15 322 15.7 101540 70
2006-08-30 06:39:08 51°14.577 2°54.83 15.7 304 15.7 101540 70
2006-08-30 06:39:13 51°14.59 2°54.819 16 320 15.7 101520 69
2006-08-30 06:39:18 51°14.603 2°54.809 16 303 15.7 101520 69
2006-08-30 06:39:23 51°14.617 2°54.799 15.7 320 15.7 101550 69
2006-08-30 06:39:28 51°14.631 2°54.789 15.7 307 15.7 101550 69
2006-08-30 06:39:33 51°14.643 2°54.78 14.6 319 15.7 101520 69
2006-08-30 06:39:38 51°14.657 2°54.771 17.4 306 15.7 101520 69
2006-08-30 06:39:44 51°14.674 2°54.759 15.6 320 15.8 101540 70
2006-08-30 06:39:48 51°14.685 2°54.752 15.7 305 15.8 101540 70
2006-08-30 06:39:53 51°14.699 2°54.742 15.8 323 15.7 101550 69
2006-08-30 06:39:58 51°14.712 2°54.733 14.7 305 15.7 101550 69
2006-08-30 06:40:03 51°14.727 2°54.723 16.5 321 15.7 101540 69
2006-08-30 06:40:08 51°14.741 2°54.714 15 322 15.7 101540 69
2006-08-30 06:40:12 51°14.753 2°54.706 16.7 326 15.7 101540 68
2006-08-30 06:40:17 51°14.767 2°54.695 16 306 15.7 101540 68
2006-08-30 06:40:23 51°14.785 2°54.684 17 322 15.7 101550 68
2006-08-30 06:40:28 51°14.799 2°54.674 15.9 308 15.7 101550 68
2006-08-30 06:40:33 51°14.813 2°54.665 15.6 322 15.8 101540 69
2006-08-30 06:40:38 51°14.827 2°54.654 17.1 307 15.8 101540 69
2006-08-30 06:40:43 51°14.842 2°54.643 16.2 321 15.8 101540 69
2006-08-30 06:40:48 51°14.856 2°54.633 15.7 303 15.8 101540 69
2006-08-30 06:40:53 51°14.87 2°54.622 16.1 320 15.8 101540 69
2006-08-30 06:40:58 51°14.885 2°54.613 15.3 308 15.8 101540 69
2006-08-30 06:41:03 51°14.9 2°54.603 16.8 322 15.7 101550 68
2006-08-30 06:41:09 51°14.917 2°54.59 17.5 306 15.7 101550 68
2006-08-30 06:41:14 51°14.932 2°54.579 18.3 321 15.7 101540 68
2006-08-30 06:41:17 51°14.941 2°54.573 16 306 15.7 101540 68
2006-08-30 06:41:23 51°14.958 2°54.56 15.7 321 15.8 101540 69
2006-08-30 06:41:28 51°14.973 2°54.55 16.8 304 15.8 101540 69
2006-08-30 06:41:33 51°14.988 2°54.539 16.4 321 15.8 101540 70
2006-08-30 06:41:38 51°15.002 2°54.53 16.4 307 15.8 101540 70
2006-08-30 06:41:41 51°15.011 2°54.523 17.3 321 15.8 101520 69
2006-08-30 06:41:49 51°15.032 2°54.509 15.7 307 15.8 101520 69
2006-08-30 06:41:54 51°15.047 2°54.5 14.6 323 15.7 101540 69
2006-08-30 06:41:59 51°15.06 2°54.49 16.4 305 15.7 101540 69
2006-08-30 06:42:03 51°15.071 2°54.483 15 322 15.7 101520 68
2006-08-30 06:42:08 51°15.085 2°54.472 16.1 306 15.7 101520 68
2006-08-30 06:42:13 51°15.099 2°54.461 16.5 320 15.7 101520 69
2006-08-30 06:42:18 51°15.112 2°54.452 17.9 306 15.7 101520 69
2006-08-30 06:42:23 51°15.125 2°54.441 15 321 15.7 101560 69
2006-08-30 06:42:28 51°15.14 2°54.431 14.7 306 15.7 101560 69
2006-08-30 06:42:33 51°15.153 2°54.422 14.2 319 15.7 101550 69
2006-08-30 06:42:38 51°15.167 2°54.412 14.2 306 15.7 101550 69
2006-08-30 06:42:41 51°15.175 2°54.406 16 320 15.7 101530 70
2006-08-30 06:42:48 51°15.195 2°54.392 16.1 305 15.7 101530 70
2006-08-30 06:42:53 51°15.21 2°54.382 15.3 320 15.7 101550 71
2006-08-30 06:42:58 51°15.222 2°54.372 16.1 305 15.7 101550 71
2006-08-30 06:43:03 51°15.236 2°54.362 17.9 317 15.7 101550 71
2006-08-30 06:43:08 51°15.249 2°54.352 18 304 15.7 101550 71
2006-08-30 06:43:13 51°15.264 2°54.341 17.7 318 15.7 101550 70
2006-08-30 06:43:18 51°15.278 2°54.332 16.8 306 15.7 101550 70
2006-08-30 06:43:21 51°15.287 2°54.325 17.1 319 15.7 101520 70
2006-08-30 06:43:28 51°15.306 2°54.311 15.1 305 15.7 101520 70
2006-08-30 06:43:33 51°15.32 2°54.3 15.3 321 15.7 101510 68
2006-08-30 06:43:38 51°15.335 2°54.289 14.5 305 15.7 101510 68
2006-08-30 06:43:43 51°15.348 2°54.279 15.5 323 15.7 101510 69
2006-08-30 06:43:48 51°15.362 2°54.268 15.7 303 15.7 101510 69
2006-08-30 06:43:53 51°15.376 2°54.258 14.3 320 15.7 101530 69
2006-08-30 06:43:58 51°15.389 2°54.248 14.5 306 15.7 101530 69
2006-08-30 06:44:02 51°15.401 2°54.239 15.4 318 15.8 101550 71
2006-08-30 06:44:08 51°15.417 2°54.225 16.2 305 15.8 101550 71
2006-08-30 06:44:13 51°15.431 2°54.215 15.3 322 15.8 101530 72
2006-08-30 06:44:18 51°15.445 2°54.204 16.3 303 15.8 101530 72
2006-08-30 06:44:23 51°15.459 2°54.193 15.6 321 15.8 101530 72
2006-08-30 06:44:28 51°15.473 2°54.182 13.9 302 15.8 101530 72
2006-08-30 06:44:33 51°15.488 2°54.172 12.4 324 15.9 101560 72
2006-08-30 06:44:37 51°15.499 2°54.164 16.2 324 15.9 101560 72
2006-08-30 06:44:43 51°15.517 2°54.152 16.7 324 15.8 101550 72
2006-08-30 06:44:49 51°15.533 2°54.139 16.9 305 15.8 101550 72
2006-08-30 06:44:52 51°15.542 2°54.134 17.2 322 15.8 101540 72
2006-08-30 06:44:57 51°15.557 2°54.122 16.5 303 15.8 101540 72
2006-08-30 06:45:03 51°15.573 2°54.11 15.6 323 15.8 101540 72
2006-08-30 06:45:08 51°15.588 2°54.098 15.3 306 15.8 101540 72
2006-08-30 06:45:13 51°15.601 2°54.088 14.4 321 15.8 101540 71
2006-08-30 06:45:19 51°15.618 2°54.074 15.3 307 15.8 101540 71
2006-08-30 06:45:23 51°15.628 2°54.066 14.5 325 15.8 101530 71
2006-08-30 06:45:28 51°15.642 2°54.056 17 322 15.8 101530 71
2006-08-30 06:45:33 51°15.656 2°54.044 16.8 322 15.8 101530 71
2006-08-30 06:45:38 51°15.669 2°54.034 15.3 307 15.8 101530 71
2006-08-30 06:45:43 51°15.684 2°54.023 17.5 321 15.8 101560 72
2006-08-30 06:45:48 51°15.697 2°54.013 17.6 305 15.8 101560 72
2006-08-30 06:45:53 51°15.712 2°54.001 15.9 320 15.8 101550 72
2006-08-30 06:45:58 51°15.726 2°53.991 17.5 306 15.8 101550 72
2006-08-30 06:46:03 51°15.74 2°53.98 18.2 319 15.8 101530 72
2006-08-30 06:46:08 51°15.754 2°53.97 16.2 305 15.8 101530 72
2006-08-30 06:46:13 51°15.767 2°53.96 16.9 318 15.8 101530 71
2006-08-30 06:46:17 51°15.779 2°53.952 15.2 304 15.8 101530 71
2006-08-30 06:46:24 51°15.799 2°53.939 14.9 317 15.7 101540 71
2006-08-30 06:46:28 51°15.811 2°53.931 14 307 15.7 101540 71
2006-08-30 06:46:33 51°15.824 2°53.922 15.3 317 15.7 101530 71
2006-08-30 06:46:38 51°15.84 2°53.912 15 305 15.7 101530 71
2006-08-30 06:46:43 51°15.853 2°53.904 14.8 318 15.7 101540 71
2006-08-30 06:46:48 51°15.868 2°53.893 15.9 308 15.7 101540 71
2006-08-30 06:46:53 51°15.882 2°53.884 15.2 320 15.7 101540 71
2006-08-30 06:46:58 51°15.897 2°53.875 15.7 307 15.7 101540 71
2006-08-30 06:47:03 51°15.912 2°53.864 15.5 319 15.7 101550 71
2006-08-30 06:47:08 51°15.926 2°53.855 16.1 303 15.7 101550 71
2006-08-30 06:47:13 51°15.941 2°53.845 15.5 320 15.7 101540 72
2006-08-30 06:47:18 51°15.956 2°53.835 15.6 309 15.7 101540 72
2006-08-30 06:47:23 51°15.97 2°53.827 15.7 316 15.7 101540 72
2006-08-30 06:47:29 51°15.987 2°53.814 15.3 308 15.7 101540 72
2006-08-30 06:47:33 51°15.998 2°53.807 15.1 317 15.8 101540 73
2006-08-30 06:47:38 51°16.013 2°53.797 16.8 309 15.8 101540 73
2006-08-30 06:47:43 51°16.028 2°53.787 19.2 319 15.7 101540 72
2006-08-30 06:47:48 51°16.041 2°53.778 17.8 303 15.7 101540 72
2006-08-30 06:47:53 51°16.056 2°53.769 17.8 317 15.8 101530 73
2006-08-30 06:47:57 51°16.068 2°53.763 16.3 305 15.8 101530 73
2006-08-30 06:48:03 51°16.084 2°53.754 16.3 318 15.7 101540 73
2006-08-30 06:48:08 51°16.1 2°53.746 16.1 280 15.7 101540 73
2006-08-30 06:48:13 51°16.114 2°53.737 16.1 317 15.7 101510 71
2006-08-30 06:48:19 51°16.131 2°53.728 16.2 307 15.7 101510 71
2006-08-30 06:48:23 51°16.143 2°53.72 17.2 319 15.7 101510 70
2006-08-30 06:48:28 51°16.157 2°53.713 16.3 306 15.7 101510 70
2006-08-30 06:48:33 51°16.173 2°53.703 16.2 320 15.7 101530 69
2006-08-30 06:48:37 51°16.184 2°53.697 17.4 307 15.7 101530 69
2006-08-30 06:48:43 51°16.203 2°53.687 16.9 319 15.6 101520 70
2006-08-30 06:48:48 51°16.217 2°53.679 15.3 306 15.6 101520 70
2006-08-30 06:48:53 51°16.231 2°53.671 15.1 319 15.6 101520 70
2006-08-30 06:48:58 51°16.246 2°53.664 16.2 307 15.6 101520 70
2006-08-30 06:49:02 51°16.259 2°53.658 15 316 15.6 101530 69
2006-08-30 06:49:08 51°16.276 2°53.65 15.7 307 15.6 101530 69
2006-08-30 06:49:13 51°16.292 2°53.642 17.1 316 15.6 101520 70
2006-08-30 06:49:17 51°16.303 2°53.635 15.6 304 15.6 101520 70
2006-08-30 06:49:23 51°16.321 2°53.625 16.4 24 15.7 101540 71
2006-08-30 06:49:28 51°16.336 2°53.617 17.4 306 15.7 101540 71
2006-08-30 06:49:33 51°16.351 2°53.61 15.3 316 15.7 101530 70
2006-08-30 06:49:39 51°16.369 2°53.6 13.6 307 15.7 101530 70
2006-08-30 06:49:43 51°16.381 2°53.594 14.1 315 15.7 101510 70
2006-08-30 06:49:49 51°16.4 2°53.586 17.2 304 15.7 101510 70
2006-08-30 06:49:53 51°16.412 2°53.581 18.3 319 15.6 101520 70
2006-08-30 06:49:58 51°16.427 2°53.573 16.2 308 15.6 101520 70
2006-08-30 06:50:03 51°16.44 2°53.566 14.6 317 15.7 101540 71
2006-08-30 06:50:08 51°16.455 2°53.558 16.8 283 15.7 101540 71
2006-08-30 06:50:13 51°16.47 2°53.55 17.3 316 15.7 101520 71
2006-08-30 06:50:18 51°16.482 2°53.544 17.7 304 15.7 101520 71
2006-08-30 06:50:24 51°16.501 2°53.535 16.3 319 15.7 101530 70
2006-08-30 06:50:28 51°16.512 2°53.529 16 307 15.7 101530 70
2006-08-30 06:50:33 51°16.525 2°53.521 15.8 317 15.6 101530 70
2006-08-30 06:50:38 51°16.54 2°53.513 18.1 305 15.6 101530 70
2006-08-30 06:50:43 51°16.554 2°53.506 17 317 15.6 101490 69
2006-08-30 06:50:48 51°16.569 2°53.499 17 306 15.6 101490 69
2006-08-30 06:50:52 51°16.58 2°53.493 16.8 315 15.6 101510 70
2006-08-30 06:50:59 51°16.602 2°53.486 17.9 308 15.6 101510 70
2006-08-30 06:51:04 51°16.616 2°53.48 15.5 22 15.6 101530 69
2006-08-30 06:51:07 51°16.624 2°53.477 16 283 15.6 101530 69
2006-08-30 06:51:13 51°16.643 2°53.469 15.9 316 15.6 101530 69
2006-08-30 06:51:18 51°16.656 2°53.464 15.6 304 15.6 101530 69
2006-08-30 06:51:23 51°16.671 2°53.459 16.7 24 15.6 101550 69
2006-08-30 06:51:28 51°16.687 2°53.453 14.4 308 15.6 101550 69
2006-08-30 06:51:33 51°16.701 2°53.447 14.5 20 15.6 101520 70
2006-08-30 06:51:39 51°16.719 2°53.442 14.7 307 15.6 101520 70
2006-08-30 06:51:43 51°16.731 2°53.437 16.3 24 15.6 101510 70
2006-08-30 06:51:48 51°16.744 2°53.431 15.9 303 15.6 101510 70
2006-08-30 06:51:53 51°16.76 2°53.424 16.3 22 15.6 101510 69
2006-08-30 06:51:58 51°16.775 2°53.418 15.8 306 15.6 101510 69
2006-08-30 06:52:01 51°16.784 2°53.415 16 22 15.6 101530 70
2006-08-30 06:52:08 51°16.805 2°53.407 18.4 281 15.6 101530 70
2006-08-30 06:52:14 51°16.822 2°53.401 17.3 24 15.6 101530 69
2006-08-30 06:52:19 51°16.836 2°53.396 17.6 307 15.6 101530 69
2006-08-30 06:52:23 51°16.848 2°53.392 17 25 15.6 101530 68
2006-08-30 06:52:28 51°16.864 2°53.387 16 304 15.6 101530 68
2006-08-30 06:52:33 51°16.879 2°53.382 16.4 25 15.6 101530 68
2006-08-30 06:52:38 51°16.894 2°53.377 16.2 301 15.6 101530 68
2006-08-30 06:52:43 51°16.908 2°53.373 17.4 23 15.5 101510 68
2006-08-30 06:52:48 51°16.924 2°53.369 16.9 307 15.5 101510 68
2006-08-30 06:52:53 51°16.939 2°53.364 18 23 15.6 101530 69
2006-08-30 06:52:58 51°16.954 2°53.36 16.1 306 15.6 101530 69
2006-08-30 06:53:03 51°16.97 2°53.357 16.9 25 15.6 101520 69
2006-08-30 06:53:08 51°16.986 2°53.352 16.5 306 15.6 101520 69
2006-08-30 06:53:13 51°17.001 2°53.348 16.2 24 15.6 101520 69
2006-08-30 06:53:18 51°17.016 2°53.344 17.8 306 15.6 101520 69
2006-08-30 06:53:23 51°17.033 2°53.339 16.2 25 15.6 101520 68
2006-08-30 06:53:28 51°17.048 2°53.334 14 306 15.6 101520 68
2006-08-30 06:53:32 51°17.061 2°53.331 14.8 25 15.5 101520 68
2006-08-30 06:53:37 51°17.077 2°53.326 14.2 302 15.5 101520 68
2006-08-30 06:53:43 51°17.096 2°53.322 16.8 25 15.5 101530 68
2006-08-30 06:53:48 51°17.113 2°53.318 17.2 306 15.5 101530 68
2006-08-30 06:53:53 51°17.127 2°53.315 17.3 21 15.6 101530 70
2006-08-30 06:53:58 51°17.143 2°53.31 17.1 304 15.6 101530 70
2006-08-30 06:54:03 51°17.16 2°53.305 16.7 27 15.6 101530 71
2006-08-30 06:54:08 51°17.174 2°53.301 15.7 281 15.6 101530 71
2006-08-30 06:54:13 51°17.192 2°53.299 17.4 25 15.6 101530 70
2006-08-30 06:54:18 51°17.206 2°53.296 16.7 305 15.6 101530 70
2006-08-30 06:54:23 51°17.222 2°53.293 16.5 21 15.6 101520 69
2006-08-30 06:54:28 51°17.239 2°53.291 15.7 304 15.6 101520 69
2006-08-30 06:54:33 51°17.255 2°53.289 16.6 22 15.6 101510 69
2006-08-30 06:54:38 51°17.271 2°53.287 15.1 306 15.6 101510 69
2006-08-30 06:54:43 51°17.287 2°53.286 15 24 15.6 101520 68
2006-08-30 06:54:47 51°17.301 2°53.284 16.4 306 15.6 101520 68
2006-08-30 06:54:53 51°17.32 2°53.282 16.5 25 15.6 101530 69
2006-08-30 06:54:59 51°17.341 2°53.282 15 307 15.6 101530 69
2006-08-30 06:55:03 51°17.354 2°53.28 15 21 15.6 101530 69
2006-08-30 06:55:08 51°17.369 2°53.279 16.8 282 15.6 101530 69
2006-08-30 06:55:13 51°17.386 2°53.277 16.2 24 15.6 101530 69
2006-08-30 06:55:18 51°17.402 2°53.277 17.4 307 15.6 101530 69
2006-08-30 06:55:23 51°17.42 2°53.277 16.9 23 15.6 101540 69
2006-08-30 06:55:28 51°17.434 2°53.277 14.3 306 15.6 101540 69
2006-08-30 06:55:33 51°17.45 2°53.277 17 24 15.6 101540 69
2006-08-30 06:55:38 51°17.465 2°53.28 16 303 15.6 101540 69
2006-08-30 06:55:43 51°17.483 2°53.284 17.4 22 15.6 101530 68
2006-08-30 06:55:49 51°17.499 2°53.287 14 33 15.6 101530 68
2006-08-30 06:55:54 51°17.515 2°53.293 12.5 25 15.6 101520 68
2006-08-30 06:55:59 51°17.531 2°53.299 15.2 238 15.6 101520 68
2006-08-30 06:56:03 51°17.543 2°53.303 15.3 25 15.6 101540 69
2006-08-30 06:56:08 51°17.558 2°53.307 16.1 35 15.6 101540 69
2006-08-30 06:56:13 51°17.573 2°53.312 15.9 25 15.6 101530 69
2006-08-30 06:56:18 51°17.588 2°53.316 16.8 235 15.6 101530 69
2006-08-30 06:56:23 51°17.603 2°53.321 15.4 22 15.7 101530 69
2006-08-30 06:56:28 51°17.62 2°53.328 15.2 237 15.7 101530 69
2006-08-30 06:56:33 51°17.635 2°53.333 14.3 21 15.7 101530 69
2006-08-30 06:56:38 51°17.65 2°53.337 16.4 35 15.7 101530 69
2006-08-30 06:56:43 51°17.665 2°53.342 15.3 21 15.7 101540 70
2006-08-30 06:56:48 51°17.682 2°53.349 15.6 36 15.7 101540 70
2006-08-30 06:56:53 51°17.698 2°53.354 15.7 22 15.7 101540 69
2006-08-30 06:56:58 51°17.714 2°53.36 15.5 237 15.7 101540 69
2006-08-30 06:57:03 51°17.729 2°53.364 14.6 26 15.7 101540 70
2006-08-30 06:57:08 51°17.745 2°53.372 13.9 240 15.7 101540 70
2006-08-30 06:57:14 51°17.763 2°53.376 15.3 25 15.7 101550 70
2006-08-30 06:57:19 51°17.778 2°53.382 14.8 234 15.7 101550 70
2006-08-30 06:57:23 51°17.79 2°53.387 15.9 24 15.7 101530 69
2006-08-30 06:57:28 51°17.806 2°53.394 15.2 236 15.7 101530 69
2006-08-30 06:57:33 51°17.821 2°53.4 14.4 25 15.7 101550 70
2006-08-30 06:57:38 51°17.836 2°53.404 13.5 32 15.7 101550 70
2006-08-30 06:57:43 51°17.853 2°53.41 14.8 20 15.7 101530 70
2006-08-30 06:57:48 51°17.868 2°53.413 16.2 34 15.7 101530 70
2006-08-30 06:57:53 51°17.883 2°53.419 14 25 15.7 101540 70
2006-08-30 06:57:58 51°17.899 2°53.424 14 235 15.7 101540 70
2006-08-30 06:58:03 51°17.915 2°53.428 16.1 26 15.7 101520 70
2006-08-30 06:58:08 51°17.931 2°53.432 16.1 36 15.7 101520 70
2006-08-30 06:58:13 51°17.946 2°53.436 15.7 24 15.7 101530 70
2006-08-30 06:58:18 51°17.963 2°53.441 17.6 235 15.7 101530 70
2006-08-30 06:58:23 51°17.979 2°53.445 16 22 15.7 101530 71
2006-08-30 06:58:28 51°17.994 2°53.449 16.9 237 15.7 101530 71
2006-08-30 06:58:34 51°18.013 2°53.456 17.5 21 15.7 101540 71
2006-08-30 06:58:37 51°18.023 2°53.459 13.9 36 15.7 101540 71
2006-08-30 06:58:43 51°18.042 2°53.463 14.5 22 15.7 101540 70
2006-08-30 06:58:48 51°18.058 2°53.467 14.1 36 15.7 101540 70
2006-08-30 06:58:53 51°18.075 2°53.473 14.2 26 15.7 101520 69
2006-08-30 06:58:58 51°18.091 2°53.477 16.2 234 15.7 101520 69
2006-08-30 06:59:03 51°18.108 2°53.482 15.9 26 15.7 101520 70
2006-08-30 06:59:08 51°18.124 2°53.486 15.3 35 15.7 101520 70
2006-08-30 06:59:12 51°18.136 2°53.491 16.8 24 15.7 101550 71
2006-08-30 06:59:18 51°18.154 2°53.494 15.3 233 15.7 101550 71
2006-08-30 06:59:24 51°18.173 2°53.502 14.9 26 15.8 101510 71
2006-08-30 06:59:28 51°18.186 2°53.505 14.3 34 15.8 101510 71
2006-08-30 06:59:34 51°18.205 2°53.511 15.6 23 15.7 101520 69
2006-08-30 06:59:38 51°18.216 2°53.513 15.1 33 15.7 101520 69
2006-08-30 06:59:43 51°18.233 2°53.518 12.2 21 15.7 101530 70
2006-08-30 06:59:47 51°18.246 2°53.519 14.9 35 15.7 101530 70
2006-08-30 06:59:53 51°18.264 2°53.523 14.7 22 15.7 101530 70
2006-08-30 06:59:58 51°18.279 2°53.526 15.7 234 15.7 101530 70
2006-08-30 07:00:04 51°18.298 2°53.53 13.9 29 15.8 101530 71
2006-08-30 07:00:09 51°18.314 2°53.533 14 36 15.8 101530 71
2006-08-30 07:00:13 51°18.326 2°53.535 15.7 23 15.8 101540 71
2006-08-30 07:00:18 51°18.34 2°53.539 15.4 36 15.8 101540 71
2006-08-30 07:00:24 51°18.36 2°53.542 15.1 28 15.8 101530 71
2006-08-30 07:00:28 51°18.372 2°53.545 14.3 39 15.8 101530 71
2006-08-30 07:00:34 51°18.39 2°53.546 12.8 24 15.8 101530 72
2006-08-30 07:00:38 51°18.403 2°53.545 15.7 33 15.8 101530 72
2006-08-30 07:00:42 51°18.415 2°53.545 15.7 315 15.8 101530 71
2006-08-30 07:00:48 51°18.434 2°53.542 15 317 15.8 101530 71
2006-08-30 07:00:52 51°18.447 2°53.539 15.9 315 15.8 101540 70
2006-08-30 07:00:58 51°18.464 2°53.533 19 316 15.8 101540 70
2006-08-30 07:01:03 51°18.479 2°53.528 18 316 15.8 101530 70
2006-08-30 07:01:09 51°18.499 2°53.52 15.7 316 15.8 101530 70
2006-08-30 07:01:14 51°18.51 2°53.514 19.9 317 15.8 101540 71
2006-08-30 07:01:19 51°18.525 2°53.507 15.2 318 15.8 101540 71
2006-08-30 07:01:24 51°18.54 2°53.499 17.2 320 15.8 101520 70
2006-08-30 07:01:28 51°18.55 2°53.492 16 322 15.8 101520 70
2006-08-30 07:01:33 51°18.561 2°53.483 15.4 321 15.7 101530 69
2006-08-30 07:01:39 51°18.578 2°53.472 14.5 321 15.7 101530 69
2006-08-30 07:01:42 51°18.586 2°53.466 17.5 323 15.7 101510 70
2006-08-30 07:01:48 51°18.602 2°53.454 16.9 321 15.7 101510 70
2006-08-30 07:01:53 51°18.616 2°53.443 17.4 321 15.7 101530 68
2006-08-30 07:01:58 51°18.629 2°53.433 17.4 321 15.7 101530 68
2006-08-30 07:02:03 51°18.644 2°53.421 18 321 15.7 101530 69
2006-08-30 07:02:08 51°18.657 2°53.41 17.1 321 15.7 101530 69
2006-08-30 07:02:13 51°18.672 2°53.4 15.9 322 15.7 101530 68
2006-08-30 07:02:18 51°18.687 2°53.389 16.2 322 15.7 101530 68
2006-08-30 07:02:23 51°18.701 2°53.378 17.8 323 15.7 101530 68
2006-08-30 07:02:28 51°18.715 2°53.367 16.1 323 15.7 101530 68
2006-08-30 07:02:33 51°18.729 2°53.355 16.2 322 15.7 101520 68
2006-08-30 07:02:38 51°18.743 2°53.345 17.1 321 15.7 101520 68
2006-08-30 07:02:44 51°18.761 2°53.332 17 324 15.7 101550 69
2006-08-30 07:02:48 51°18.773 2°53.323 18.8 325 15.7 101550 69
2006-08-30 07:02:53 51°18.786 2°53.313 17.9 319 15.7 101530 69
2006-08-30 07:02:58 51°18.801 2°53.303 17.1 322 15.7 101530 69
2006-08-30 07:03:03 51°18.814 2°53.292 17.2 322 15.7 101520 69
2006-08-30 07:03:08 51°18.829 2°53.281 17.3 320 15.7 101520 69
2006-08-30 07:03:13 51°18.843 2°53.27 17.1 319 15.7 101560 69
2006-08-30 07:03:18 51°18.858 2°53.26 17.4 320 15.7 101560 69
2006-08-30 07:03:23 51°18.872 2°53.249 17.4 319 15.7 101520 69
2006-08-30 07:03:28 51°18.887 2°53.238 16.4 321 15.7 101520 69
2006-08-30 07:03:33 51°18.901 2°53.228 17 321 15.7 101530 69
2006-08-30 07:03:39 51°18.917 2°53.219 16.7 318 15.7 101530 69
2006-08-30 07:03:44 51°18.93 2°53.211 14.1 320 15.7 101540 70
2006-08-30 07:03:49 51°18.939 2°53.205 14.4 320 15.7 101540 70
2006-08-30 07:03:53 51°18.947 2°53.199 15 320 15.7 101550 70
2006-08-30 07:03:58 51°18.956 2°53.192 14.7 319 15.7 101550 70
2006-08-30 07:04:03 51°18.966 2°53.185 15.4 321 15.7 101530 69
2006-08-30 07:04:08 51°18.974 2°53.179 16.1 321 15.7 101530 69
2006-08-30 07:04:13 51°18.981 2°53.174 15 318 15.7 101560 69
2006-08-30 07:04:18 51°18.989 2°53.169 13.1 322 15.7 101560 69
2006-08-30 07:04:23 51°18.996 2°53.164 11.6 322 15.7 101550 69
2006-08-30 07:04:28 51°19.002 2°53.159 12.9 318 15.7 101550 69
2006-08-30 07:04:33 51°19.008 2°53.156 14 317 15.7 101550 69
2006-08-30 07:04:38 51°19.014 2°53.152 13.6 319 15.7 101550 69
2006-08-30 07:04:44 51°19.019 2°53.148 13.8 319 15.7 101560 69
2006-08-30 07:04:48 51°19.022 2°53.146 13 319 15.7 101560 69
2006-08-30 07:04:53 51°19.026 2°53.144 12.6 317 15.7 101570 70
2006-08-30 07:04:58 51°19.03 2°53.141 10.3 316 15.7 101570 70
2006-08-30 07:05:03 51°19.034 2°53.139 11.9 317 15.6 101560 68
2006-08-30 07:05:08 51°19.038 2°53.137 12.3 36 15.6 101560 68
2006-08-30 07:05:13 51°19.041 2°53.136 12.4 316 15.6 101560 68
2006-08-30 07:05:18 51°19.043 2°53.135 12.4 318 15.6 101560 68
2006-08-30 07:05:23 51°19.046 2°53.134 11.6 316 15.7 101560 70
2006-08-30 07:05:28 51°19.049 2°53.133 12.5 319 15.7 101560 70
2006-08-30 07:05:33 51°19.052 2°53.132 11.4 315 15.7 101560 70
2006-08-30 07:05:39 51°19.056 2°53.132 11.6 38 15.7 101560 70
2006-08-30 07:05:42 51°19.058 2°53.13 11.1 23 15.6 101560 70
2006-08-30 07:05:48 51°19.062 2°53.13 11 317 15.6 101560 70
2006-08-30 07:05:53 51°19.065 2°53.129 10.6 318 15.7 101560 70
2006-08-30 07:05:58 51°19.068 2°53.127 11.3 319 15.7 101560 70
2006-08-30 07:06:03 51°19.072 2°53.126 13 317 15.6 101570 70
2006-08-30 07:06:08 51°19.075 2°53.124 13.9 322 15.6 101570 70
2006-08-30 07:06:13 51°19.077 2°53.122 12.6 320 15.6 101570 70
2006-08-30 07:06:18 51°19.08 2°53.121 12.6 327 15.6 101570 70
2006-08-30 07:06:23 51°19.083 2°53.119 11.1 322 15.6 101570 70
2006-08-30 07:06:28 51°19.086 2°53.117 13.5 326 15.6 101570 70
2006-08-30 07:06:34 51°19.089 2°53.115 11.7 325 15.7 101560 70
2006-08-30 07:06:38 51°19.09 2°53.113 12.1 323 15.7 101560 70
2006-08-30 07:06:43 51°19.093 2°53.111 12.2 324 15.7 101560 71
2006-08-30 07:06:49 51°19.096 2°53.108 12.7 326 15.7 101560 71
2006-08-30 07:06:53 51°19.098 2°53.106 13.2 326 15.6 101570 69
2006-08-30 07:06:58 51°19.1 2°53.104 13.4 326 15.6 101570 69
2006-08-30 07:07:03 51°19.103 2°53.101 12.2 327 15.6 101570 69
2006-08-30 07:07:08 51°19.105 2°53.097 12.5 328 15.6 101570 69
2006-08-30 07:07:13 51°19.107 2°53.094 12.9 328 15.6 101570 69
2006-08-30 07:07:18 51°19.109 2°53.091 13 329 15.6 101570 69
2006-08-30 07:07:23 51°19.112 2°53.087 12.5 328 15.6 101580 69
2006-08-30 07:07:28 51°19.114 2°53.083 12.4 331 15.6 101580 69
2006-08-30 07:07:33 51°19.117 2°53.08 12 329 15.6 101580 70
2006-08-30 07:07:38 51°19.119 2°53.077 13.5 326 15.6 101580 70
2006-08-30 07:07:43 51°19.121 2°53.074 11.6 325 15.6 101570 69
2006-08-30 07:07:49 51°19.124 2°53.071 11.1 323 15.6 101570 69
2006-08-30 07:07:53 51°19.125 2°53.07 10.4 323 15.6 101580 69
2006-08-30 07:07:58 51°19.127 2°53.069 11.3 320 15.6 101580 69
2006-08-30 07:08:03 51°19.129 2°53.067 9.7 323 15.6 101560 69
2006-08-30 07:08:08 51°19.13 2°53.065 10.5 316 15.6 101560 69
2006-08-30 07:08:13 51°19.132 2°53.065 12.8 315 15.5 101570 69
2006-08-30 07:08:18 51°19.132 2°53.066 11.3 35 15.5 101570 69
2006-08-30 07:08:23 51°19.133 2°53.066 11.5 316 15.6 101570 70
2006-08-30 07:08:28 51°19.134 2°53.067 11.7 38 15.6 101570 70
2006-08-30 07:08:31 51°19.134 2°53.067 11.8 28 15.6 101580 71
2006-08-30 07:08:38 51°19.134 2°53.068 11.8 32 15.6 101580 71
2006-08-30 07:08:43 51°19.134 2°53.07 10.7 24 15.6 101570 70
2006-08-30 07:08:48 51°19.134 2°53.071 10.5 241 15.6 101570 70
2006-08-30 07:08:53 51°19.134 2°53.071 13.1 24 15.6 101570 71
2006-08-30 07:08:58 51°19.134 2°53.073 12.2 243 15.6 101570 71
2006-08-30 07:09:03 51°19.134 2°53.074 12.4 22 15.6 101570 70
2006-08-30 07:09:08 51°19.134 2°53.076 10.2 245 15.6 101570 70
2006-08-30 07:09:14 51°19.135 2°53.077 10.4 26 15.6 101570 71
2006-08-30 07:09:18 51°19.135 2°53.079 12.8 246 15.6 101570 71
2006-08-30 07:09:24 51°19.134 2°53.081 12.5 21 15.7 101570 72
2006-08-30 07:09:29 51°19.134 2°53.082 12.2 248 15.7 101570 72
2006-08-30 07:09:34 51°19.133 2°53.083 13.3 252 15.7 101570 72
2006-08-30 07:09:38 51°19.133 2°53.084 12.2 250 15.7 101570 72
2006-08-30 07:09:42 51°19.133 2°53.087 12.1 251 15.6 101580 71
2006-08-30 07:09:47 51°19.132 2°53.089 14.2 256 15.6 101580 71
2006-08-30 07:09:54 51°19.131 2°53.09 14.3 258 15.6 101570 71
2006-08-30 07:09:58 51°19.131 2°53.09 13.1 259 15.6 101570 71
2006-08-30 07:10:03 51°19.13 2°53.092 13.1 259 15.7 101570 71
2006-08-30 07:10:08 51°19.13 2°53.093 14.2 259 15.7 101570 71
2006-08-30 07:10:13 51°19.129 2°53.094 11.3 260 15.7 101580 72
2006-08-30 07:10:18 51°19.128 2°53.095 13.6 258 15.7 101580 72
2006-08-30 07:10:23 51°19.128 2°53.096 9.6 265 15.7 101580 72
2006-08-30 07:10:28 51°19.128 2°53.096 10 262 15.7 101580 72
2006-08-30 07:10:33 51°19.127 2°53.098 9.4 266 15.7 101580 71
2006-08-30 07:10:38 51°19.126 2°53.099 9.3 261 15.7 101580 71
2006-08-30 07:10:43 51°19.125 2°53.1 9 261 15.7 101590 72
2006-08-30 07:10:48 51°19.125 2°53.101 7.9 262 15.7 101590 72
2006-08-30 07:10:53 51°19.124 2°53.102 7.5 265 15.7 101590 71
2006-08-30 07:10:58 51°19.124 2°53.103 8.2 266 15.7 101590 71
2006-08-30 07:11:03 51°19.123 2°53.105 7.5 265 15.7 101580 71
2006-08-30 07:11:08 51°19.123 2°53.106 10.5 267 15.7 101580 71
2006-08-30 07:11:13 51°19.123 2°53.107 9.1 265 15.7 101590 71
2006-08-30 07:11:18 51°19.122 2°53.109 8 264 15.7 101590 71
2006-08-30 07:11:23 51°19.122 2°53.109 9.9 261 15.7 101580 71
2006-08-30 07:11:28 51°19.121 2°53.111 7.8 265 15.7 101580 71
2006-08-30 07:11:33 51°19.121 2°53.112 7 263 15.7 101590 71
2006-08-30 07:11:38 51°19.12 2°53.113 7.9 265 15.7 101590 71
2006-08-30 07:11:43 51°19.12 2°53.114 9.7 265 15.7 101590 71
2006-08-30 07:11:48 51°19.119 2°53.115 9.5 266 15.7 101590 71
2006-08-30 07:11:53 51°19.119 2°53.117 8.4 265 15.6 101590 70
2006-08-30 07:11:58 51°19.118 2°53.118 8.1 266 15.6 101590 70
2006-08-30 07:12:02 51°19.118 2°53.118 8.6 265 15.6 101590 70
2006-08-30 07:12:09 51°19.117 2°53.12 7.5 265 15.6 101590 70
2006-08-30 07:12:13 51°19.117 2°53.121 6.7 264 15.6 101590 71
2006-08-30 07:12:18 51°19.117 2°53.121 6.6 265 15.6 101590 71
2006-08-30 07:12:23 51°19.116 2°53.123 8 265 15.6 101590 72
2006-08-30 07:12:28 51°19.115 2°53.124 10.2 262 15.6 101590 72
2006-08-30 07:12:33 51°19.116 2°53.125 7 264 15.7 101600 72
2006-08-30 07:12:38 51°19.115 2°53.126 8.1 263 15.7 101600 72
2006-08-30 07:12:42 51°19.115 2°53.127 9.6 265 15.7 101590 73
2006-08-30 07:12:48 51°19.114 2°53.129 7.4 264 15.7 101590 73
2006-08-30 07:12:54 51°19.114 2°53.129 9.3 263 15.7 101600 73
2006-08-30 07:12:58 51°19.113 2°53.131 12 261 15.7 101600 73
2006-08-30 07:13:03 51°19.114 2°53.13 11.2 260 15.8 101590 74
2006-08-30 07:13:08 51°19.113 2°53.132 8.7 261 15.8 101590 74
2006-08-30 07:13:13 51°19.112 2°53.133 10.8 262 15.8 101590 75
2006-08-30 07:13:18 51°19.112 2°53.134 9.7 262 15.8 101590 75
2006-08-30 07:13:23 51°19.112 2°53.135 8.2 262 15.8 101600 75
2006-08-30 07:13:28 51°19.112 2°53.137 10 261 15.8 101600 75
2006-08-30 07:13:33 51°19.111 2°53.139 10.4 260 15.8 101590 75
2006-08-30 07:13:38 51°19.11 2°53.14 10.2 262 15.8 101590 75
2006-08-30 07:13:43 51°19.11 2°53.14 9.6 261 15.8 101590 72
2006-08-30 07:13:49 51°19.11 2°53.142 11.3 262 15.8 101590 72
2006-08-30 07:13:53 51°19.11 2°53.142 7.8 263 15.7 101590 70
2006-08-30 07:13:58 51°19.109 2°53.144 9.1 262 15.7 101590 70
2006-08-30 07:14:03 51°19.108 2°53.145 11.7 267 15.7 101600 70
2006-08-30 07:14:08 51°19.108 2°53.144 8.2 265 15.7 101600 70
2006-08-30 07:14:13 51°19.107 2°53.146 13.2 260 15.6 101590 70
2006-08-30 07:14:18 51°19.107 2°53.148 11 263 15.6 101590 70
2006-08-30 07:14:23 51°19.106 2°53.148 8 265 15.7 101590 71
2006-08-30 07:14:29 51°19.105 2°53.15 14.6 260 15.7 101590 71
2006-08-30 07:14:33 51°19.105 2°53.15 9.9 261 15.6 101590 70
2006-08-30 07:14:38 51°19.105 2°53.151 9.7 262 15.6 101590 70
2006-08-30 07:14:43 51°19.104 2°53.152 12.4 261 15.6 101600 70
2006-08-30 07:14:48 51°19.104 2°53.153 7.2 264 15.6 101600 70
2006-08-30 07:14:53 51°19.104 2°53.154 9.1 262 15.6 101600 71
2006-08-30 07:14:58 51°19.102 2°53.155 12.9 261 15.6 101600 71
2006-08-30 07:15:03 51°19.102 2°53.156 8.4 261 15.6 101580 70
2006-08-30 07:15:08 51°19.102 2°53.157 8 259 15.6 101580 70
2006-08-30 07:15:13 51°19.101 2°53.158 8 264 15.6 101600 69
2006-08-30 07:15:18 51°19.101 2°53.159 11.8 259 15.6 101600 69
2006-08-30 07:15:23 51°19.1 2°53.16 7.5 265 15.6 101590 68
2006-08-30 07:15:28 51°19.099 2°53.161 8.5 264 15.6 101590 68
2006-08-30 07:15:33 51°19.099 2°53.162 8.4 266 15.6 101600 69
2006-08-30 07:15:38 51°19.098 2°53.163 9.2 259 15.6 101600 69
2006-08-30 07:15:43 51°19.098 2°53.163 9.2 262 15.6 101600 70
2006-08-30 07:15:48 51°19.097 2°53.164 13.2 260 15.6 101600 70
2006-08-30 07:15:53 51°19.096 2°53.165 8.9 261 15.6 101600 70
2006-08-30 07:15:58 51°19.095 2°53.166 8.1 265 15.6 101600 70
2006-08-30 07:16:03 51°19.095 2°53.167 8.3 264 15.6 101600 69
2006-08-30 07:16:08 51°19.094 2°53.168 10.1 262 15.6 101600 69
2006-08-30 07:16:13 51°19.094 2°53.168 8.5 262 15.6 101600 70
2006-08-30 07:16:18 51°19.093 2°53.17 7.9 266 15.6 101600 70
2006-08-30 07:16:23 51°19.092 2°53.17 6.6 260 15.6 101600 70
2006-08-30 07:16:29 51°19.092 2°53.171 9.8 262 15.6 101600 70
2006-08-30 07:16:33 51°19.091 2°53.172 8.9 267 15.6 101590 70
2006-08-30 07:16:38 51°19.091 2°53.172 6.2 262 15.6 101590 70
2006-08-30 07:16:43 51°19.09 2°53.173 7 269 15.6 101600 71
2006-08-30 07:16:48 51°19.089 2°53.174 9.1 265 15.6 101600 71
2006-08-30 07:16:53 51°19.088 2°53.175 7.5 263 15.6 101610 71
2006-08-30 07:16:58 51°19.088 2°53.175 11 266 15.6 101610 71
2006-08-30 07:17:03 51°19.087 2°53.177 9.8 265 15.6 101600 71
2006-08-30 07:17:08 51°19.087 2°53.177 9.6 268 15.6 101600 71
2006-08-30 07:17:11 51°19.086 2°53.178 8.5 263 15.6 101600 70
2006-08-30 07:17:18 51°19.086 2°53.179 7.6 263 15.6 101600 70
2006-08-30 07:17:23 51°19.085 2°53.18 8.9 263 15.6 101590 70
2006-08-30 07:17:28 51°19.084 2°53.181 9.8 262 15.6 101590 70
2006-08-30 07:17:33 51°19.084 2°53.181 6.9 263 15.6 101600 69
2006-08-30 07:17:38 51°19.082 2°53.182 9.1 263 15.6 101600 69
2006-08-30 07:17:43 51°19.082 2°53.182 8.2 263 15.6 101600 68
2006-08-30 07:17:48 51°19.082 2°53.183 7.5 266 15.6 101600 68
2006-08-30 07:17:54 51°19.081 2°53.183 9.1 264 15.6 101610 69
2006-08-30 07:17:58 51°19.079 2°53.186 9.1 264 15.6 101610 69
2006-08-30 07:18:03 51°19.078 2°53.187 11.1 270 15.6 101600 68
2006-08-30 07:18:08 51°19.078 2°53.186 10.2 269 15.6 101600 68
2006-08-30 07:18:13 51°19.077 2°53.187 10.4 266 15.6 101600 69
2006-08-30 07:18:18 51°19.076 2°53.188 9.6 262 15.6 101600 69
2006-08-30 07:18:23 51°19.076 2°53.189 7.6 264 15.6 101600 69
2006-08-30 07:18:28 51°19.074 2°53.189 9.1 265 15.6 101600 69
2006-08-30 07:18:33 51°19.074 2°53.189 9.5 265 15.6 101600 69
2006-08-30 07:18:38 51°19.073 2°53.19 8.9 262 15.6 101600 69
2006-08-30 07:18:43 51°19.073 2°53.19 7.9 264 15.5 101600 69
2006-08-30 07:18:48 51°19.072 2°53.19 8.7 34 15.5 101600 69
2006-08-30 07:18:53 51°19.071 2°53.192 10 267 15.6 101600 69
2006-08-30 07:18:58 51°19.07 2°53.193 7.2 263 15.6 101600 69
2006-08-30 07:19:03 51°19.07 2°53.193 9.4 266 15.6 101600 71
2006-08-30 07:19:08 51°19.07 2°53.193 10.6 268 15.6 101600 71
2006-08-30 07:19:13 51°19.069 2°53.195 8.8 265 15.6 101600 71
2006-08-30 07:19:18 51°19.068 2°53.196 8.5 262 15.6 101600 71
2006-08-30 07:19:23 51°19.068 2°53.197 6.4 264 15.6 101620 69
2006-08-30 07:19:29 51°19.069 2°53.198 8.1 305 15.6 101620 69
2006-08-30 07:19:33 51°19.068 2°53.201 8.5 262 15.5 101590 69
2006-08-30 07:19:38 51°19.069 2°53.203 12.1 257 15.5 101590 69
2006-08-30 07:19:43 51°19.07 2°53.207 12.5 258 15.5 101600 68
2006-08-30 07:19:48 51°19.072 2°53.209 11 258 15.5 101600 68
2006-08-30 07:19:53 51°19.074 2°53.213 10.7 252 15.5 101600 69
2006-08-30 07:19:58 51°19.077 2°53.216 12.5 254 15.5 101600 69
2006-08-30 07:20:03 51°19.08 2°53.22 12 251 15.6 101610 70
2006-08-30 07:20:08 51°19.082 2°53.222 11.8 250 15.6 101610 70
2006-08-30 07:20:13 51°19.086 2°53.226 12.3 251 15.6 101600 69
2006-08-30 07:20:18 51°19.09 2°53.23 11.8 246 15.6 101600 69
2006-08-30 07:20:23 51°19.094 2°53.233 11.5 246 15.6 101600 70
2006-08-30 07:20:28 51°19.098 2°53.238 13.1 248 15.6 101600 70
2006-08-30 07:20:33 51°19.103 2°53.241 13 248 15.6 101590 70
2006-08-30 07:20:38 51°19.107 2°53.244 11.3 250 15.6 101590 70
2006-08-30 07:20:43 51°19.112 2°53.249 11.7 249 15.6 101600 70
2006-08-30 07:20:49 51°19.118 2°53.255 12.5 250 15.6 101600 70
2006-08-30 07:20:53 51°19.122 2°53.259 10.5 249 15.5 101590 69
2006-08-30 07:20:58 51°19.128 2°53.264 12.7 248 15.5 101590 69
2006-08-30 07:21:02 51°19.133 2°53.268 12.9 249 15.6 101580 69
2006-08-30 07:21:08 51°19.14 2°53.274 11.2 249 15.6 101580 69
2006-08-30 07:21:13 51°19.146 2°53.28 12 251 15.6 101600 69
2006-08-30 07:21:18 51°19.152 2°53.285 10.9 251 15.6 101600 69
2006-08-30 07:21:23 51°19.158 2°53.291 13 254 15.6 101600 70
2006-08-30 07:21:28 51°19.163 2°53.297 13.6 251 15.6 101600 70
2006-08-30 07:21:32 51°19.168 2°53.301 13 251 15.6 101590 71
2006-08-30 07:21:38 51°19.176 2°53.31 14.6 254 15.6 101590 71
2006-08-30 07:21:43 51°19.182 2°53.317 11.3 252 15.6 101600 70
2006-08-30 07:21:48 51°19.188 2°53.322 11.5 248 15.6 101600 70
2006-08-30 07:21:51 51°19.193 2°53.325 13 250 15.6 101580 69
2006-08-30 07:21:58 51°19.201 2°53.334 14.4 250 15.6 101580 69
2006-08-30 07:22:03 51°19.207 2°53.339 12.2 251 15.6 101600 69
2006-08-30 07:22:08 51°19.214 2°53.345 13.6 252 15.6 101600 69
2006-08-30 07:22:14 51°19.223 2°53.353 13.1 21 15.6 101600 69
2006-08-30 07:22:18 51°19.228 2°53.357 12.4 250 15.6 101600 69
2006-08-30 07:22:23 51°19.234 2°53.363 12.9 250 15.6 101600 69
2006-08-30 07:22:28 51°19.239 2°53.369 12.5 248 15.6 101600 69
2006-08-30 07:22:33 51°19.244 2°53.375 11.2 249 15.6 101600 69
2006-08-30 07:22:38 51°19.25 2°53.38 13.7 255 15.6 101600 69
2006-08-30 07:22:43 51°19.254 2°53.384 12.9 253 15.6 101590 69
2006-08-30 07:22:48 51°19.258 2°53.389 14.1 253 15.6 101590 69
2006-08-30 07:22:53 51°19.262 2°53.394 13.8 258 15.6 101600 70
2006-08-30 07:22:58 51°19.266 2°53.4 11.9 255 15.6 101600 70
2006-08-30 07:23:03 51°19.27 2°53.404 11.6 251 15.6 101600 70
2006-08-30 07:23:08 51°19.273 2°53.408 10.9 254 15.6 101600 70
2006-08-30 07:23:13 51°19.276 2°53.412 9.7 254 15.6 101590 70
2006-08-30 07:23:18 51°19.279 2°53.415 11.7 254 15.6 101590 70
2006-08-30 07:23:22 51°19.281 2°53.417 12.3 255 15.7 101600 71
2006-08-30 07:23:28 51°19.285 2°53.421 12.2 252 15.7 101600 71
2006-08-30 07:23:33 51°19.287 2°53.424 11.9 252 15.7 101610 72
2006-08-30 07:23:38 51°19.289 2°53.427 11.7 253 15.7 101610 72
2006-08-30 07:23:43 51°19.292 2°53.429 12.8 254 15.8 101610 72
2006-08-30 07:23:48 51°19.293 2°53.432 12.6 255 15.8 101610 72
2006-08-30 07:23:53 51°19.294 2°53.434 11.9 258 15.8 101610 72
2006-08-30 07:23:58 51°19.295 2°53.436 13.1 259 15.8 101610 72
2006-08-30 07:24:03 51°19.296 2°53.437 11.9 259 15.8 101610 72
2006-08-30 07:24:08 51°19.295 2°53.439 11.6 260 15.8 101610 72
2006-08-30 07:24:13 51°19.295 2°53.439 10.3 259 15.7 101610 71
2006-08-30 07:24:18 51°19.294 2°53.441 7.3 262 15.7 101610 71
2006-08-30 07:24:23 51°19.294 2°53.442 10.5 259 15.7 101620 71
2006-08-30 07:24:28 51°19.293 2°53.443 12 259 15.7 101620 71
2006-08-30 07:24:33 51°19.293 2°53.443 13 258 15.7 101620 70
2006-08-30 07:24:38 51°19.293 2°53.445 9.1 262 15.7 101620 70
2006-08-30 07:24:43 51°19.293 2°53.445 10.7 259 15.7 101610 71
2006-08-30 07:24:48 51°19.292 2°53.447 7.1 262 15.7 101610 71
2006-08-30 07:24:53 51°19.291 2°53.449 6.8 255 15.8 101630 71
2006-08-30 07:24:58 51°19.291 2°53.449 7.2 262 15.8 101630 71
2006-08-30 07:25:03 51°19.291 2°53.451 7.8 263 15.8 101610 72
2006-08-30 07:25:08 51°19.29 2°53.452 11.9 260 15.8 101610 72
2006-08-30 07:25:13 51°19.29 2°53.454 10.1 260 15.8 101620 73
2006-08-30 07:25:18 51°19.29 2°53.454 11.9 263 15.8 101620 73
2006-08-30 07:25:23 51°19.289 2°53.456 14 259 15.8 101630 72
2006-08-30 07:25:28 51°19.288 2°53.457 8 265 15.8 101630 72
2006-08-30 07:25:33 51°19.287 2°53.458 9.1 266 15.8 101610 71
2006-08-30 07:25:38 51°19.287 2°53.459 8.9 263 15.8 101610 71
2006-08-30 07:25:43 51°19.286 2°53.46 7.9 264 15.7 101610 70
2006-08-30 07:25:48 51°19.285 2°53.462 8.5 266 15.7 101610 70
2006-08-30 07:25:53 51°19.285 2°53.462 7.5 265 15.7 101610 70
2006-08-30 07:25:59 51°19.284 2°53.465 10.3 265 15.7 101610 70
2006-08-30 07:26:03 51°19.284 2°53.464 9.3 27 15.7 101620 70
2006-08-30 07:26:08 51°19.283 2°53.465 9.6 269 15.7 101620 70
2006-08-30 07:26:13 51°19.282 2°53.467 10.1 269 15.8 101620 71
2006-08-30 07:26:18 51°19.281 2°53.468 8.5 263 15.8 101620 71
2006-08-30 07:26:22 51°19.281 2°53.469 12 268 15.8 101620 72
2006-08-30 07:26:28 51°19.28 2°53.47 11.4 266 15.8 101620 72
2006-08-30 07:26:32 51°19.28 2°53.47 11.2 268 15.7 101610 70
2006-08-30 07:26:38 51°19.279 2°53.472 11.3 267 15.7 101610 70
2006-08-30 07:26:43 51°19.278 2°53.474 8.8 265 15.7 101620 69
2006-08-30 07:26:48 51°19.278 2°53.474 9.7 267 15.7 101620 69
2006-08-30 07:26:53 51°19.277 2°53.475 10.8 265 15.7 101610 69
2006-08-30 07:26:58 51°19.276 2°53.477 9.7 268 15.7 101610 69
2006-08-30 07:27:03 51°19.275 2°53.478 8.6 266 15.6 101620 68
2006-08-30 07:27:08 51°19.274 2°53.48 8.7 262 15.6 101620 68
2006-08-30 07:27:13 51°19.273 2°53.481 6.9 264 15.7 101610 67
2006-08-30 07:27:18 51°19.273 2°53.481 8.4 264 15.7 101610 67
2006-08-30 07:27:24 51°19.273 2°53.483 7.9 263 15.6 101620 68
2006-08-30 07:27:28 51°19.272 2°53.485 9.3 263 15.6 101620 68
2006-08-30 07:27:33 51°19.272 2°53.485 7.3 262 15.6 101620 67
2006-08-30 07:27:38 51°19.271 2°53.486 7.2 264 15.6 101620 67
2006-08-30 07:27:42 51°19.271 2°53.487 8.8 263 15.6 101610 67
2006-08-30 07:27:49 51°19.27 2°53.489 7.3 267 15.6 101610 67
2006-08-30 07:27:53 51°19.269 2°53.491 8.9 263 15.6 101620 68
2006-08-30 07:27:58 51°19.269 2°53.492 9.1 269 15.6 101620 68
2006-08-30 07:28:02 51°19.269 2°53.492 10.7 267 15.6 101610 67
2006-08-30 07:28:08 51°19.269 2°53.494 8.3 266 15.6 101610 67
2006-08-30 07:28:13 51°19.268 2°53.495 9.7 264 15.6 101610 69
2006-08-30 07:28:18 51°19.268 2°53.496 10.7 263 15.6 101610 69
2006-08-30 07:28:23 51°19.267 2°53.497 7.1 261 15.6 101620 69
2006-08-30 07:28:28 51°19.266 2°53.499 13.6 261 15.6 101620 69
2006-08-30 07:28:33 51°19.266 2°53.499 7.4 262 15.6 101610 67
2006-08-30 07:28:38 51°19.266 2°53.5 9.1 262 15.6 101610 67
2006-08-30 07:28:43 51°19.266 2°53.502 10.4 261 15.6 101620 67
2006-08-30 07:28:48 51°19.266 2°53.503 5.8 262 15.6 101620 67
2006-08-30 07:28:53 51°19.266 2°53.503 11.7 259 15.6 101620 68
2006-08-30 07:28:58 51°19.265 2°53.504 8.8 262 15.6 101620 68
2006-08-30 07:29:03 51°19.263 2°53.507 7.4 264 15.5 101620 66
2006-08-30 07:29:08 51°19.263 2°53.507 9.6 261 15.5 101620 66
2006-08-30 07:29:13 51°19.262 2°53.508 7.1 264 15.6 101620 67
2006-08-30 07:29:19 51°19.262 2°53.509 11 259 15.6 101620 67
2006-08-30 07:29:23 51°19.262 2°53.509 12.6 259 15.6 101610 68
2006-08-30 07:29:28 51°19.261 2°53.511 12.3 260 15.6 101610 68
2006-08-30 07:29:33 51°19.261 2°53.511 8.1 261 15.6 101620 69
2006-08-30 07:29:38 51°19.26 2°53.512 8 264 15.6 101620 69
2006-08-30 07:29:43 51°19.26 2°53.512 8.1 265 15.7 101620 69
2006-08-30 07:29:48 51°19.259 2°53.513 7 264 15.7 101620 69
2006-08-30 07:29:53 51°19.259 2°53.513 7.8 260 15.7 101630 70
2006-08-30 07:29:58 51°19.259 2°53.515 10.7 260 15.7 101630 70
2006-08-30 07:30:03 51°19.258 2°53.517 7.6 265 15.8 101620 71
2006-08-30 07:30:08 51°19.257 2°53.517 11.8 261 15.8 101620 71
2006-08-30 07:30:13 51°19.257 2°53.517 8.4 262 15.8 101620 70
2006-08-30 07:30:18 51°19.257 2°53.519 10.7 261 15.8 101620 70
2006-08-30 07:30:23 51°19.256 2°53.52 11 257 15.7 101610 69
2006-08-30 07:30:28 51°19.256 2°53.52 14.1 258 15.7 101610 69
2006-08-30 07:30:33 51°19.256 2°53.521 14 258 15.7 101620 69
2006-08-30 07:30:38 51°19.255 2°53.523 12.3 260 15.7 101620 69
2006-08-30 07:30:43 51°19.255 2°53.523 10.4 260 15.7 101630 69
2006-08-30 07:30:48 51°19.254 2°53.523 12.6 260 15.7 101630 69
2006-08-30 07:30:53 51°19.254 2°53.525 12.5 259 15.7 101640 69
2006-08-30 07:30:58 51°19.254 2°53.526 14.8 257 15.7 101640 69
2006-08-30 07:31:03 51°19.253 2°53.526 13.8 259 15.6 101630 67
2006-08-30 07:31:08 51°19.253 2°53.528 15.7 257 15.6 101630 67
2006-08-30 07:31:13 51°19.252 2°53.529 14.7 258 15.6 101630 68
2006-08-30 07:31:18 51°19.251 2°53.529 13.5 258 15.6 101630 68
2006-08-30 07:31:21 51°19.251 2°53.53 13.8 259 15.6 101630 67
2006-08-30 07:31:28 51°19.25 2°53.531 11.6 260 15.6 101630 67
2006-08-30 07:31:32 51°19.249 2°53.532 10.1 260 15.6 101630 66
2006-08-30 07:31:38 51°19.249 2°53.533 12.5 260 15.6 101630 66
2006-08-30 07:31:44 51°19.247 2°53.534 10.6 261 15.6 101630 66
2006-08-30 07:31:48 51°19.247 2°53.535 12.7 258 15.6 101630 66
2006-08-30 07:31:53 51°19.247 2°53.535 10.7 258 15.6 101630 66
2006-08-30 07:31:58 51°19.246 2°53.537 13.1 259 15.6 101630 66
2006-08-30 07:32:02 51°19.246 2°53.536 11 258 15.6 101640 66
2006-08-30 07:32:09 51°19.245 2°53.538 12 258 15.6 101640 66
2006-08-30 07:32:13 51°19.244 2°53.538 11.2 260 15.6 101630 67
2006-08-30 07:32:18 51°19.243 2°53.54 11.7 255 15.6 101630 67
2006-08-30 07:32:23 51°19.242 2°53.54 12 257 15.6 101640 67
2006-08-30 07:32:29 51°19.242 2°53.54 11.2 258 15.6 101640 67
2006-08-30 07:32:33 51°19.241 2°53.542 10.8 259 15.6 101630 67
2006-08-30 07:32:38 51°19.241 2°53.542 9.6 261 15.6 101630 67
2006-08-30 07:32:43 51°19.24 2°53.544 10.1 257 15.6 101630 68
2006-08-30 07:32:48 51°19.239 2°53.544 10.1 262 15.6 101630 68
2006-08-30 07:32:53 51°19.238 2°53.545 8.7 262 15.7 101620 69
2006-08-30 07:32:58 51°19.238 2°53.545 7.5 266 15.7 101620 69
2006-08-30 07:33:02 51°19.237 2°53.545 8.3 266 15.7 101620 70
2006-08-30 07:33:08 51°19.236 2°53.546 7.6 266 15.7 101620 70
2006-08-30 07:33:13 51°19.235 2°53.547 7.9 264 15.7 101630 70
2006-08-30 07:33:18 51°19.234 2°53.548 8.4 260 15.7 101630 70
2006-08-30 07:33:23 51°19.233 2°53.549 8.4 263 15.7 101640 69
2006-08-30 07:33:28 51°19.233 2°53.549 6.9 265 15.7 101640 69
2006-08-30 07:33:33 51°19.232 2°53.55 7.5 267 15.7 101640 69
2006-08-30 07:33:38 51°19.231 2°53.55 8.8 264 15.7 101640 69
2006-08-30 07:33:42 51°19.231 2°53.55 11.9 260 15.7 101650 69
2006-08-30 07:33:48 51°19.23 2°53.551 9.8 262 15.7 101650 69
2006-08-30 07:33:53 51°19.229 2°53.552 9.5 263 15.7 101640 68
2006-08-30 07:33:58 51°19.229 2°53.552 7.9 264 15.7 101640 68
2006-08-30 07:34:04 51°19.228 2°53.553 9.6 263 15.7 101640 69
2006-08-30 07:34:08 51°19.227 2°53.554 6.5 264 15.7 101640 69
2006-08-30 07:34:13 51°19.226 2°53.556 8.5 261 15.7 101640 68
2006-08-30 07:34:18 51°19.225 2°53.556 6.7 263 15.7 101640 68
2006-08-30 07:34:24 51°19.225 2°53.556 7 266 15.6 101620 66
2006-08-30 07:34:28 51°19.224 2°53.558 7.6 262 15.6 101620 66
2006-08-30 07:34:33 51°19.223 2°53.558 6 266 15.6 101630 66
2006-08-30 07:34:38 51°19.222 2°53.559 8.3 263 15.6 101630 66
2006-08-30 07:34:44 51°19.222 2°53.558 9.4 262 15.7 101640 68
2006-08-30 07:34:48 51°19.221 2°53.56 6.9 263 15.7 101640 68
2006-08-30 07:34:53 51°19.221 2°53.56 6.5 262 15.7 101640 67
2006-08-30 07:34:58 51°19.221 2°53.56 9.8 262 15.7 101640 67
2006-08-30 07:35:03 51°19.22 2°53.561 8.2 264 15.7 101630 68
2006-08-30 07:35:08 51°19.219 2°53.562 8.7 264 15.7 101630 68
2006-08-30 07:35:14 51°19.218 2°53.562 8 263 15.8 101640 69
2006-08-30 07:35:18 51°19.217 2°53.564 10 263 15.8 101640 69
2006-08-30 07:35:23 51°19.218 2°53.564 6.8 263 15.7 101640 68
2006-08-30 07:35:28 51°19.218 2°53.566 9.7 262 15.7 101640 68
2006-08-30 07:35:31 51°19.218 2°53.567 8.2 262 15.7 101640 68
2006-08-30 07:35:38 51°19.218 2°53.57 11.2 261 15.7 101640 68
2006-08-30 07:35:43 51°19.219 2°53.572 11 260 15.6 101630 67
2006-08-30 07:35:48 51°19.22 2°53.575 14.2 257 15.6 101630 67
2006-08-30 07:35:53 51°19.222 2°53.578 12.9 258 15.6 101620 67
2006-08-30 07:35:58 51°19.224 2°53.582 13.6 256 15.6 101620 67
2006-08-30 07:36:03 51°19.226 2°53.585 12.9 260 15.6 101620 67
2006-08-30 07:36:08 51°19.229 2°53.589 12.9 257 15.6 101620 67
2006-08-30 07:36:13 51°19.232 2°53.594 12.3 256 15.7 101630 68
2006-08-30 07:36:18 51°19.235 2°53.599 12.6 249 15.7 101630 68
2006-08-30 07:36:24 51°19.239 2°53.605 11.6 251 15.7 101630 68
2006-08-30 07:36:28 51°19.242 2°53.608 10.7 251 15.7 101630 68
2006-08-30 07:36:33 51°19.246 2°53.613 13.8 249 15.7 101630 68
2006-08-30 07:36:38 51°19.25 2°53.619 13 252 15.7 101630 68
2006-08-30 07:36:43 51°19.254 2°53.625 11.7 249 15.7 101620 69
2006-08-30 07:36:48 51°19.26 2°53.633 14.4 252 15.7 101620 69
2006-08-30 07:36:53 51°19.266 2°53.641 14.5 252 15.7 101620 70
2006-08-30 07:36:58 51°19.273 2°53.65 13.7 253 15.7 101620 70
2006-08-30 07:37:03 51°19.28 2°53.66 12.5 253 15.7 101600 70
2006-08-30 07:37:08 51°19.287 2°53.67 12.1 249 15.7 101600 70
2006-08-30 07:37:13 51°19.295 2°53.678 12 253 15.7 101610 70
2006-08-30 07:37:18 51°19.303 2°53.688 12.6 250 15.7 101610 70
2006-08-30 07:37:23 51°19.312 2°53.698 10.7 249 15.7 101610 68
2006-08-30 07:37:28 51°19.321 2°53.709 12.1 248 15.7 101610 68
2006-08-30 07:37:33 51°19.33 2°53.717 12.6 250 15.7 101620 68
2006-08-30 07:37:38 51°19.339 2°53.728 13.6 247 15.7 101620 68
2006-08-30 07:37:43 51°19.349 2°53.739 13.4 250 15.7 101610 69
2006-08-30 07:37:48 51°19.358 2°53.75 13.1 249 15.7 101610 69
2006-08-30 07:37:53 51°19.367 2°53.762 11.9 248 15.7 101630 69
2006-08-30 07:37:58 51°19.377 2°53.772 9.5 248 15.7 101630 69
2006-08-30 07:38:03 51°19.386 2°53.784 11.1 251 15.7 101610 69
2006-08-30 07:38:08 51°19.394 2°53.796 11.7 245 15.7 101610 69
2006-08-30 07:38:13 51°19.404 2°53.808 11.6 247 15.7 101620 69
2006-08-30 07:38:18 51°19.412 2°53.82 13.4 248 15.7 101620 69
2006-08-30 07:38:23 51°19.422 2°53.832 12.6 20 15.7 101610 70
2006-08-30 07:38:29 51°19.432 2°53.847 13.6 248 15.7 101610 70
2006-08-30 07:38:33 51°19.439 2°53.858 14.3 243 15.7 101620 70
2006-08-30 07:38:38 51°19.448 2°53.869 13.4 252 15.7 101620 70
2006-08-30 07:38:44 51°19.458 2°53.885 13.5 253 15.7 101610 70
2006-08-30 07:38:47 51°19.462 2°53.893 15.1 250 15.7 101610 70
2006-08-30 07:38:53 51°19.471 2°53.908 14.4 250 15.7 101620 70
2006-08-30 07:38:58 51°19.479 2°53.919 14.6 253 15.7 101620 70
2006-08-30 07:39:03 51°19.487 2°53.931 13.3 253 15.8 101600 70
2006-08-30 07:39:08 51°19.494 2°53.943 15.7 258 15.8 101600 70
2006-08-30 07:39:13 51°19.501 2°53.954 15.3 257 15.7 101620 70
2006-08-30 07:39:18 51°19.509 2°53.965 13.4 254 15.7 101620 70
2006-08-30 07:39:23 51°19.516 2°53.978 13.1 256 15.7 101610 70
2006-08-30 07:39:29 51°19.524 2°53.99 13.5 256 15.7 101610 70
2006-08-30 07:39:33 51°19.53 2°53.999 15.1 256 15.7 101620 69
2006-08-30 07:39:38 51°19.538 2°54.009 13.1 248 15.7 101620 69
2006-08-30 07:39:43 51°19.545 2°54.02 14.6 254 15.7 101620 69
2006-08-30 07:39:48 51°19.552 2°54.031 15 257 15.7 101620 69
2006-08-30 07:39:53 51°19.559 2°54.041 15.2 256 15.8 101630 69
2006-08-30 07:39:58 51°19.565 2°54.05 13.5 255 15.8 101630 69
2006-08-30 07:40:03 51°19.571 2°54.057 14 255 15.8 101620 69
2006-08-30 07:40:08 51°19.576 2°54.066 12.9 257 15.8 101620 69
2006-08-30 07:40:13 51°19.582 2°54.074 14.4 257 15.7 101630 68
2006-08-30 07:40:18 51°19.587 2°54.081 14.3 258 15.7 101630 68
2006-08-30 07:40:22 51°19.59 2°54.087 14.9 259 15.7 101630 68
2006-08-30 07:40:28 51°19.595 2°54.096 12.9 261 15.7 101630 68
2006-08-30 07:40:33 51°19.599 2°54.102 14.4 259 15.7 101630 68
2006-08-30 07:40:38 51°19.603 2°54.108 7.7 263 15.7 101630 68
2006-08-30 07:40:43 51°19.605 2°54.116 7.9 262 15.7 101630 68
2006-08-30 07:40:48 51°19.608 2°54.122 12.3 262 15.7 101630 68
2006-08-30 07:40:53 51°19.611 2°54.127 9 263 15.7 101630 68
2006-08-30 07:40:58 51°19.614 2°54.133 7.4 263 15.7 101630 68
2006-08-30 07:41:03 51°19.615 2°54.138 9.3 262 15.7 101620 68
2006-08-30 07:41:08 51°19.617 2°54.142 11.5 259 15.7 101620 68
2006-08-30 07:41:13 51°19.618 2°54.146 11.4 259 15.7 101630 68
2006-08-30 07:41:18 51°19.619 2°54.148 7.2 264 15.7 101630 68
2006-08-30 07:41:23 51°19.62 2°54.15 8.3 265 15.7 101630 68
2006-08-30 07:41:29 51°19.62 2°54.153 12.2 260 15.7 101630 68
2006-08-30 07:41:33 51°19.619 2°54.153 12.9 259 15.6 101630 67
2006-08-30 07:41:38 51°19.618 2°54.154 11.3 260 15.6 101630 67
2006-08-30 07:41:42 51°19.618 2°54.153 10.4 263 15.7 101630 69
2006-08-30 07:41:49 51°19.616 2°54.153 9.4 258 15.7 101630 69
2006-08-30 07:41:53 51°19.616 2°54.154 7.9 263 15.7 101640 69
2006-08-30 07:41:58 51°19.615 2°54.154 6.9 262 15.7 101640 69
2006-08-30 07:42:03 51°19.614 2°54.154 7.6 265 15.7 101630 68
2006-08-30 07:42:08 51°19.613 2°54.154 7.9 270 15.7 101630 68
2006-08-30 07:42:13 51°19.612 2°54.155 11.3 266 15.7 101620 69
2006-08-30 07:42:18 51°19.611 2°54.156 8.3 264 15.7 101620 69
2006-08-30 07:42:23 51°19.61 2°54.156 9.3 268 15.7 101630 70
2006-08-30 07:42:28 51°19.609 2°54.157 10.3 260 15.7 101630 70
2006-08-30 07:42:34 51°19.608 2°54.157 7.6 262 15.7 101640 71
2006-08-30 07:42:38 51°19.608 2°54.157 7.5 265 15.7 101640 71
2006-08-30 07:42:44 51°19.606 2°54.158 7.7 262 15.7 101640 69
2006-08-30 07:42:49 51°19.605 2°54.157 7.2 265 15.7 101640 69
2006-08-30 07:42:54 51°19.604 2°54.158 9.7 265 15.7 101640 69
2006-08-30 07:42:58 51°19.603 2°54.159 10.8 268 15.7 101640 69
2006-08-30 07:43:03 51°19.602 2°54.16 11.2 268 15.7 101630 69
2006-08-30 07:43:08 51°19.602 2°54.16 9.7 266 15.7 101630 69
2006-08-30 07:43:12 51°19.601 2°54.16 8 269 15.7 101630 70
2006-08-30 07:43:18 51°19.599 2°54.161 8 263 15.7 101630 70
2006-08-30 07:43:23 51°19.598 2°54.161 10.3 267 15.7 101640 70
2006-08-30 07:43:28 51°19.598 2°54.16 8.2 263 15.7 101640 70
2006-08-30 07:43:33 51°19.597 2°54.161 8.8 262 15.7 101630 69
2006-08-30 07:43:38 51°19.596 2°54.162 7.5 263 15.7 101630 69
2006-08-30 07:43:41 51°19.596 2°54.162 7.6 263 15.7 101640 69
2006-08-30 07:43:48 51°19.594 2°54.162 8.5 264 15.7 101640 69
2006-08-30 07:43:53 51°19.593 2°54.164 9.1 264 15.7 101640 70
2006-08-30 07:43:57 51°19.592 2°54.164 9.1 264 15.7 101640 70
2006-08-30 07:44:03 51°19.591 2°54.165 7.7 265 15.7 101630 69
2006-08-30 07:44:08 51°19.59 2°54.165 9.1 264 15.7 101630 69
2006-08-30 07:44:13 51°19.589 2°54.166 8.2 263 15.7 101620 69
2006-08-30 07:44:19 51°19.589 2°54.166 7.8 265 15.7 101620 69
2006-08-30 07:44:23 51°19.588 2°54.166 9.8 265 15.6 101640 68
2006-08-30 07:44:28 51°19.587 2°54.167 9.7 265 15.6 101640 68
2006-08-30 07:44:33 51°19.586 2°54.167 9.8 263 15.7 101640 68
2006-08-30 07:44:38 51°19.585 2°54.168 9.5 266 15.7 101640 68
2006-08-30 07:44:43 51°19.584 2°54.169 9.2 263 15.6 101630 68
2006-08-30 07:44:48 51°19.583 2°54.169 9.3 268 15.6 101630 68
2006-08-30 07:44:53 51°19.582 2°54.17 8.5 268 15.7 101640 69
2006-08-30 07:44:58 51°19.581 2°54.171 11 265 15.7 101640 69
2006-08-30 07:45:04 51°19.58 2°54.172 8 261 15.7 101630 69
2006-08-30 07:45:08 51°19.58 2°54.172 8.8 265 15.7 101630 69
2006-08-30 07:45:13 51°19.579 2°54.172 8.9 263 15.7 101640 70
2006-08-30 07:45:18 51°19.578 2°54.173 10.5 263 15.7 101640 70
2006-08-30 07:45:23 51°19.578 2°54.173 9.9 267 15.8 101640 70
2006-08-30 07:45:28 51°19.577 2°54.174 10.3 267 15.8 101640 70
2006-08-30 07:45:33 51°19.576 2°54.175 8.5 264 15.7 101630 69
2006-08-30 07:45:38 51°19.574 2°54.177 9.5 265 15.7 101630 69
2006-08-30 07:45:44 51°19.574 2°54.176 9.1 262 15.7 101640 68
2006-08-30 07:45:48 51°19.573 2°54.176 8.4 265 15.7 101640 68
2006-08-30 07:45:54 51°19.573 2°54.177 8.3 264 15.7 101640 68
2006-08-30 07:45:58 51°19.571 2°54.178 9 261 15.7 101640 68
2006-08-30 07:46:03 51°19.571 2°54.178 11.4 261 15.7 101650 67